sensor_id;sensor_type;location;lat;lon;timestamp;P1;durP1;ratioP1;P2;durP2;ratioP2
21905;SDS011;11117;48.644;9.006;2023-08-07T00:00:03;11.13;;;2.23;;
21905;SDS011;11117;48.644;9.006;2023-08-07T00:02:30;5.30;;;1.60;;
21905;SDS011;11117;48.644;9.006;2023-08-07T00:04:55;7.40;;;1.83;;
21905;SDS011;11117;48.644;9.006;2023-08-07T00:07:21;3.87;;;1.60;;
21905;SDS011;11117;48.644;9.006;2023-08-07T00:09:46;3.20;;;1.50;;
21905;SDS011;11117;48.644;9.006;2023-08-07T00:12:12;4.67;;;1.50;;
21905;SDS011;11117;48.644;9.006;2023-08-07T00:14:38;3.97;;;1.60;;
21905;SDS011;11117;48.644;9.006;2023-08-07T00:17:03;6.33;;;1.80;;
21905;SDS011;11117;48.644;9.006;2023-08-07T00:19:29;4.80;;;1.60;;
21905;SDS011;11117;48.644;9.006;2023-08-07T00:21:54;8.63;;;1.80;;
21905;SDS011;11117;48.644;9.006;2023-08-07T00:24:20;2.10;;;1.40;;
21905;SDS011;11117;48.644;9.006;2023-08-07T00:26:45;6.37;;;2.23;;
21905;SDS011;11117;48.644;9.006;2023-08-07T00:29:15;4.90;;;1.70;;
21905;SDS011;11117;48.644;9.006;2023-08-07T00:31:40;7.37;;;1.63;;
21905;SDS011;11117;48.644;9.006;2023-08-07T00:34:06;5.93;;;1.80;;
21905;SDS011;11117;48.644;9.006;2023-08-07T00:36:31;6.67;;;1.70;;
21905;SDS011;11117;48.644;9.006;2023-08-07T00:38:57;6.77;;;1.80;;
21905;SDS011;11117;48.644;9.006;2023-08-07T00:41:23;3.20;;;1.80;;
21905;SDS011;11117;48.644;9.006;2023-08-07T00:43:48;8.70;;;2.00;;
21905;SDS011;11117;48.644;9.006;2023-08-07T00:46:14;4.87;;;1.70;;
21905;SDS011;11117;48.644;9.006;2023-08-07T00:48:39;3.70;;;1.80;;
21905;SDS011;11117;48.644;9.006;2023-08-07T00:51:05;4.60;;;1.63;;
21905;SDS011;11117;48.644;9.006;2023-08-07T00:53:31;4.47;;;1.70;;
21905;SDS011;11117;48.644;9.006;2023-08-07T00:55:56;5.70;;;1.70;;
21905;SDS011;11117;48.644;9.006;2023-08-07T00:58:22;5.90;;;1.60;;
21905;SDS011;11117;48.644;9.006;2023-08-07T01:00:47;8.73;;;2.03;;
21905;SDS011;11117;48.644;9.006;2023-08-07T01:03:13;3.30;;;1.70;;
21905;SDS011;11117;48.644;9.006;2023-08-07T01:05:38;4.10;;;1.57;;
21905;SDS011;11117;48.644;9.006;2023-08-07T01:08:05;4.23;;;1.67;;
21905;SDS011;11117;48.644;9.006;2023-08-07T01:10:34;2.50;;;1.50;;
21905;SDS011;11117;48.644;9.006;2023-08-07T01:13:16;4.57;;;1.70;;
21905;SDS011;11117;48.644;9.006;2023-08-07T01:15:48;4.77;;;1.70;;
21905;SDS011;11117;48.644;9.006;2023-08-07T01:18:17;4.43;;;1.77;;
21905;SDS011;11117;48.644;9.006;2023-08-07T01:20:43;6.97;;;1.97;;
21905;SDS011;11117;48.644;9.006;2023-08-07T01:23:08;3.20;;;1.70;;
21905;SDS011;11117;48.644;9.006;2023-08-07T01:25:34;3.47;;;1.70;;
21905;SDS011;11117;48.644;9.006;2023-08-07T01:30:48;4.43;;;2.20;;
21905;SDS011;11117;48.644;9.006;2023-08-07T01:33:24;4.63;;;1.80;;
21905;SDS011;11117;48.644;9.006;2023-08-07T01:35:56;3.93;;;1.60;;
21905;SDS011;11117;48.644;9.006;2023-08-07T01:38:26;6.07;;;2.00;;
21905;SDS011;11117;48.644;9.006;2023-08-07T01:40:52;3.73;;;1.53;;
21905;SDS011;11117;48.644;9.006;2023-08-07T01:43:19;3.67;;;1.80;;
21905;SDS011;11117;48.644;9.006;2023-08-07T01:45:45;5.77;;;1.40;;
21905;SDS011;11117;48.644;9.006;2023-08-07T01:48:11;10.50;;;1.87;;
21905;SDS011;11117;48.644;9.006;2023-08-07T01:50:37;4.20;;;1.50;;
21905;SDS011;11117;48.644;9.006;2023-08-07T01:53:03;3.43;;;1.53;;
21905;SDS011;11117;48.644;9.006;2023-08-07T01:55:29;4.57;;;1.70;;
21905;SDS011;11117;48.644;9.006;2023-08-07T01:57:55;7.73;;;1.90;;
21905;SDS011;11117;48.644;9.006;2023-08-07T02:00:21;3.90;;;1.70;;
21905;SDS011;11117;48.644;9.006;2023-08-07T02:02:47;3.97;;;1.60;;
21905;SDS011;11117;48.644;9.006;2023-08-07T02:05:13;5.50;;;1.50;;
21905;SDS011;11117;48.644;9.006;2023-08-07T02:07:39;4.83;;;1.87;;
21905;SDS011;11117;48.644;9.006;2023-08-07T02:10:05;3.13;;;1.53;;
21905;SDS011;11117;48.644;9.006;2023-08-07T02:12:31;4.70;;;1.50;;
21905;SDS011;11117;48.644;9.006;2023-08-07T02:14:57;5.47;;;1.60;;
21905;SDS011;11117;48.644;9.006;2023-08-07T02:17:24;6.60;;;1.70;;
21905;SDS011;11117;48.644;9.006;2023-08-07T02:19:50;6.73;;;1.73;;
21905;SDS011;11117;48.644;9.006;2023-08-07T02:22:15;3.73;;;1.50;;
21905;SDS011;11117;48.644;9.006;2023-08-07T02:24:41;4.83;;;1.90;;
21905;SDS011;11117;48.644;9.006;2023-08-07T02:27:07;4.13;;;1.97;;
21905;SDS011;11117;48.644;9.006;2023-08-07T02:29:32;9.43;;;2.20;;
21905;SDS011;11117;48.644;9.006;2023-08-07T02:31:58;7.63;;;1.90;;
21905;SDS011;11117;48.644;9.006;2023-08-07T02:34:24;8.27;;;1.87;;
21905;SDS011;11117;48.644;9.006;2023-08-07T02:36:49;4.60;;;1.83;;
21905;SDS011;11117;48.644;9.006;2023-08-07T02:39:17;3.50;;;1.70;;
21905;SDS011;11117;48.644;9.006;2023-08-07T02:41:43;6.03;;;1.80;;
21905;SDS011;11117;48.644;9.006;2023-08-07T02:44:09;5.10;;;1.80;;
21905;SDS011;11117;48.644;9.006;2023-08-07T02:46:34;7.73;;;2.03;;
21905;SDS011;11117;48.644;9.006;2023-08-07T02:49:00;2.97;;;1.50;;
21905;SDS011;11117;48.644;9.006;2023-08-07T02:51:25;7.27;;;1.97;;
21905;SDS011;11117;48.644;9.006;2023-08-07T02:53:51;5.10;;;1.57;;
21905;SDS011;11117;48.644;9.006;2023-08-07T02:56:17;5.50;;;1.60;;
21905;SDS011;11117;48.644;9.006;2023-08-07T02:58:42;4.97;;;2.00;;
21905;SDS011;11117;48.644;9.006;2023-08-07T03:01:08;6.13;;;2.00;;
21905;SDS011;11117;48.644;9.006;2023-08-07T03:03:34;5.73;;;1.60;;
21905;SDS011;11117;48.644;9.006;2023-08-07T03:06:00;7.50;;;1.90;;
21905;SDS011;11117;48.644;9.006;2023-08-07T03:08:26;5.83;;;1.70;;
21905;SDS011;11117;48.644;9.006;2023-08-07T03:10:52;7.17;;;1.90;;
21905;SDS011;11117;48.644;9.006;2023-08-07T03:13:18;4.90;;;2.10;;
21905;SDS011;11117;48.644;9.006;2023-08-07T03:15:44;6.57;;;2.07;;
21905;SDS011;11117;48.644;9.006;2023-08-07T03:18:10;4.87;;;1.87;;
21905;SDS011;11117;48.644;9.006;2023-08-07T03:20:38;5.27;;;1.97;;
21905;SDS011;11117;48.644;9.006;2023-08-07T03:23:04;9.97;;;2.00;;
21905;SDS011;11117;48.644;9.006;2023-08-07T03:25:29;5.87;;;2.20;;
21905;SDS011;11117;48.644;9.006;2023-08-07T03:27:55;8.67;;;3.60;;
21905;SDS011;11117;48.644;9.006;2023-08-07T03:30:21;6.77;;;2.60;;
21905;SDS011;11117;48.644;9.006;2023-08-07T03:32:46;5.80;;;2.10;;
21905;SDS011;11117;48.644;9.006;2023-08-07T03:35:12;5.00;;;2.20;;
21905;SDS011;11117;48.644;9.006;2023-08-07T03:37:38;4.80;;;2.13;;
21905;SDS011;11117;48.644;9.006;2023-08-07T03:40:03;7.10;;;2.20;;
21905;SDS011;11117;48.644;9.006;2023-08-07T03:42:30;6.33;;;1.77;;
21905;SDS011;11117;48.644;9.006;2023-08-07T03:44:55;5.00;;;1.90;;
21905;SDS011;11117;48.644;9.006;2023-08-07T03:47:21;7.67;;;2.20;;
21905;SDS011;11117;48.644;9.006;2023-08-07T03:49:47;4.70;;;1.93;;
21905;SDS011;11117;48.644;9.006;2023-08-07T03:52:12;13.47;;;2.03;;
21905;SDS011;11117;48.644;9.006;2023-08-07T03:54:38;5.13;;;1.80;;
21905;SDS011;11117;48.644;9.006;2023-08-07T03:57:04;6.03;;;2.37;;
21905;SDS011;11117;48.644;9.006;2023-08-07T03:59:29;6.47;;;2.17;;
21905;SDS011;11117;48.644;9.006;2023-08-07T04:01:55;5.33;;;1.90;;
21905;SDS011;11117;48.644;9.006;2023-08-07T04:04:21;4.57;;;1.87;;
21905;SDS011;11117;48.644;9.006;2023-08-07T04:06:46;6.70;;;2.10;;
21905;SDS011;11117;48.644;9.006;2023-08-07T04:09:14;6.37;;;1.80;;
21905;SDS011;11117;48.644;9.006;2023-08-07T04:11:40;5.37;;;1.90;;
21905;SDS011;11117;48.644;9.006;2023-08-07T04:14:05;5.73;;;1.90;;
21905;SDS011;11117;48.644;9.006;2023-08-07T04:16:31;5.03;;;1.90;;
21905;SDS011;11117;48.644;9.006;2023-08-07T04:18:57;7.97;;;2.17;;
21905;SDS011;11117;48.644;9.006;2023-08-07T04:21:22;5.57;;;2.57;;
21905;SDS011;11117;48.644;9.006;2023-08-07T04:23:48;4.70;;;2.10;;
21905;SDS011;11117;48.644;9.006;2023-08-07T04:26:13;4.17;;;1.67;;
21905;SDS011;11117;48.644;9.006;2023-08-07T04:28:39;3.80;;;1.83;;
21905;SDS011;11117;48.644;9.006;2023-08-07T04:31:05;3.17;;;1.93;;
21905;SDS011;11117;48.644;9.006;2023-08-07T04:33:30;4.63;;;2.00;;
21905;SDS011;11117;48.644;9.006;2023-08-07T04:35:56;8.37;;;2.00;;
21905;SDS011;11117;48.644;9.006;2023-08-07T04:38:22;7.93;;;2.33;;
21905;SDS011;11117;48.644;9.006;2023-08-07T04:40:48;6.40;;;2.00;;
21905;SDS011;11117;48.644;9.006;2023-08-07T04:43:18;5.23;;;1.90;;
21905;SDS011;11117;48.644;9.006;2023-08-07T04:45:44;7.17;;;2.00;;
21905;SDS011;11117;48.644;9.006;2023-08-07T04:48:09;3.90;;;1.73;;
21905;SDS011;11117;48.644;9.006;2023-08-07T04:50:35;5.20;;;1.73;;
21905;SDS011;11117;48.644;9.006;2023-08-07T04:53:01;6.97;;;2.00;;
21905;SDS011;11117;48.644;9.006;2023-08-07T04:55:27;4.07;;;2.10;;
21905;SDS011;11117;48.644;9.006;2023-08-07T04:57:52;8.53;;;2.23;;
21905;SDS011;11117;48.644;9.006;2023-08-07T05:00:18;5.27;;;1.93;;
21905;SDS011;11117;48.644;9.006;2023-08-07T05:02:44;6.80;;;2.27;;
21905;SDS011;11117;48.644;9.006;2023-08-07T05:05:09;9.90;;;1.87;;
21905;SDS011;11117;48.644;9.006;2023-08-07T05:07:35;7.43;;;2.30;;
21905;SDS011;11117;48.644;9.006;2023-08-07T05:10:01;4.53;;;1.90;;
21905;SDS011;11117;48.644;9.006;2023-08-07T05:12:27;5.53;;;1.97;;
21905;SDS011;11117;48.644;9.006;2023-08-07T05:14:53;3.20;;;1.90;;
21905;SDS011;11117;48.644;9.006;2023-08-07T05:17:19;3.53;;;1.70;;
21905;SDS011;11117;48.644;9.006;2023-08-07T05:19:44;3.90;;;2.37;;
21905;SDS011;11117;48.644;9.006;2023-08-07T05:22:10;5.20;;;1.87;;
21905;SDS011;11117;48.644;9.006;2023-08-07T05:24:36;5.17;;;2.10;;
21905;SDS011;11117;48.644;9.006;2023-08-07T05:27:01;9.77;;;1.73;;
21905;SDS011;11117;48.644;9.006;2023-08-07T05:29:27;4.80;;;1.80;;
21905;SDS011;11117;48.644;9.006;2023-08-07T05:31:52;4.73;;;1.90;;
21905;SDS011;11117;48.644;9.006;2023-08-07T05:34:19;5.40;;;1.87;;
21905;SDS011;11117;48.644;9.006;2023-08-07T05:36:44;7.13;;;1.90;;
21905;SDS011;11117;48.644;9.006;2023-08-07T05:39:10;5.93;;;1.87;;
21905;SDS011;11117;48.644;9.006;2023-08-07T05:41:35;4.10;;;1.83;;
21905;SDS011;11117;48.644;9.006;2023-08-07T05:44:01;4.60;;;2.00;;
21905;SDS011;11117;48.644;9.006;2023-08-07T05:46:27;7.07;;;2.10;;
21905;SDS011;11117;48.644;9.006;2023-08-07T05:48:53;5.10;;;1.97;;
21905;SDS011;11117;48.644;9.006;2023-08-07T05:51:18;4.00;;;1.77;;
21905;SDS011;11117;48.644;9.006;2023-08-07T05:53:44;4.23;;;1.90;;
21905;SDS011;11117;48.644;9.006;2023-08-07T05:56:10;4.90;;;1.60;;
21905;SDS011;11117;48.644;9.006;2023-08-07T05:58:35;10.17;;;2.40;;
21905;SDS011;11117;48.644;9.006;2023-08-07T06:01:01;6.90;;;2.03;;
21905;SDS011;11117;48.644;9.006;2023-08-07T06:03:26;3.77;;;1.90;;
21905;SDS011;11117;48.644;9.006;2023-08-07T06:05:52;3.27;;;1.70;;
21905;SDS011;11117;48.644;9.006;2023-08-07T06:08:18;2.60;;;1.83;;
21905;SDS011;11117;48.644;9.006;2023-08-07T06:10:43;3.13;;;1.67;;
21905;SDS011;11117;48.644;9.006;2023-08-07T06:13:09;4.70;;;1.97;;
21905;SDS011;11117;48.644;9.006;2023-08-07T06:15:35;9.07;;;1.80;;
21905;SDS011;11117;48.644;9.006;2023-08-07T06:18:00;4.00;;;1.93;;
21905;SDS011;11117;48.644;9.006;2023-08-07T06:20:26;4.43;;;1.80;;
21905;SDS011;11117;48.644;9.006;2023-08-07T06:22:52;4.97;;;1.80;;
21905;SDS011;11117;48.644;9.006;2023-08-07T06:25:17;5.70;;;1.73;;
21905;SDS011;11117;48.644;9.006;2023-08-07T06:27:43;5.57;;;1.67;;
21905;SDS011;11117;48.644;9.006;2023-08-07T06:30:09;3.93;;;1.97;;
21905;SDS011;11117;48.644;9.006;2023-08-07T06:32:35;3.97;;;1.60;;
21905;SDS011;11117;48.644;9.006;2023-08-07T06:35:01;6.60;;;2.00;;
21905;SDS011;11117;48.644;9.006;2023-08-07T06:37:26;3.93;;;1.60;;
21905;SDS011;11117;48.644;9.006;2023-08-07T06:39:52;5.63;;;1.90;;
21905;SDS011;11117;48.644;9.006;2023-08-07T06:42:18;2.90;;;1.77;;
21905;SDS011;11117;48.644;9.006;2023-08-07T06:44:43;4.87;;;2.00;;
21905;SDS011;11117;48.644;9.006;2023-08-07T06:47:09;5.37;;;1.60;;
21905;SDS011;11117;48.644;9.006;2023-08-07T06:49:35;4.13;;;1.90;;
21905;SDS011;11117;48.644;9.006;2023-08-07T06:52:00;4.83;;;1.90;;
21905;SDS011;11117;48.644;9.006;2023-08-07T06:54:26;9.50;;;1.77;;
21905;SDS011;11117;48.644;9.006;2023-08-07T06:56:52;4.03;;;1.70;;
21905;SDS011;11117;48.644;9.006;2023-08-07T06:59:19;3.90;;;1.73;;
21905;SDS011;11117;48.644;9.006;2023-08-07T07:01:45;2.20;;;1.70;;
21905;SDS011;11117;48.644;9.006;2023-08-07T07:04:11;2.33;;;1.50;;
21905;SDS011;11117;48.644;9.006;2023-08-07T07:06:37;7.93;;;2.00;;
21905;SDS011;11117;48.644;9.006;2023-08-07T07:09:03;4.03;;;1.83;;
21905;SDS011;11117;48.644;9.006;2023-08-07T07:11:29;3.53;;;1.70;;
21905;SDS011;11117;48.644;9.006;2023-08-07T07:13:54;5.40;;;2.00;;
21905;SDS011;11117;48.644;9.006;2023-08-07T07:16:20;4.40;;;1.90;;
21905;SDS011;11117;48.644;9.006;2023-08-07T07:18:46;2.77;;;1.67;;
21905;SDS011;11117;48.644;9.006;2023-08-07T07:21:12;3.10;;;1.60;;
21905;SDS011;11117;48.644;9.006;2023-08-07T07:23:38;4.20;;;1.80;;
21905;SDS011;11117;48.644;9.006;2023-08-07T07:26:03;4.50;;;2.17;;
21905;SDS011;11117;48.644;9.006;2023-08-07T07:28:29;4.57;;;1.50;;
21905;SDS011;11117;48.644;9.006;2023-08-07T07:30:54;3.30;;;1.97;;
21905;SDS011;11117;48.644;9.006;2023-08-07T07:33:20;3.47;;;1.90;;
21905;SDS011;11117;48.644;9.006;2023-08-07T07:35:45;4.37;;;1.80;;
21905;SDS011;11117;48.644;9.006;2023-08-07T07:38:11;2.43;;;1.60;;
21905;SDS011;11117;48.644;9.006;2023-08-07T07:40:37;4.53;;;1.70;;
21905;SDS011;11117;48.644;9.006;2023-08-07T07:43:02;2.20;;;1.77;;
21905;SDS011;11117;48.644;9.006;2023-08-07T07:45:28;6.80;;;1.50;;
21905;SDS011;11117;48.644;9.006;2023-08-07T07:47:54;4.37;;;1.60;;
21905;SDS011;11117;48.644;9.006;2023-08-07T07:50:19;4.03;;;1.50;;
21905;SDS011;11117;48.644;9.006;2023-08-07T07:52:45;3.47;;;1.63;;
21905;SDS011;11117;48.644;9.006;2023-08-07T07:55:10;6.55;;;1.85;;
21905;SDS011;11117;48.644;9.006;2023-08-07T07:57:36;1.92;;;1.42;;
21905;SDS011;11117;48.644;9.006;2023-08-07T08:00:02;2.70;;;1.27;;
21905;SDS011;11117;48.644;9.006;2023-08-07T08:02:27;4.70;;;1.52;;
21905;SDS011;11117;48.644;9.006;2023-08-07T08:04:53;3.05;;;1.50;;
21905;SDS011;11117;48.644;9.006;2023-08-07T08:07:18;2.00;;;1.20;;
21905;SDS011;11117;48.644;9.006;2023-08-07T08:09:44;2.90;;;1.42;;
21905;SDS011;11117;48.644;9.006;2023-08-07T08:12:10;3.03;;;1.77;;
21905;SDS011;11117;48.644;9.006;2023-08-07T08:14:35;1.42;;;1.15;;
21905;SDS011;11117;48.644;9.006;2023-08-07T08:17:01;1.92;;;1.30;;
21905;SDS011;11117;48.644;9.006;2023-08-07T08:19:26;2.08;;;1.45;;
21905;SDS011;11117;48.644;9.006;2023-08-07T08:21:52;2.97;;;1.50;;
21905;SDS011;11117;48.644;9.006;2023-08-07T08:24:19;1.27;;;0.90;;
21905;SDS011;11117;48.644;9.006;2023-08-07T08:26:44;1.80;;;1.30;;
21905;SDS011;11117;48.644;9.006;2023-08-07T08:29:10;1.60;;;1.25;;
21905;SDS011;11117;48.644;9.006;2023-08-07T08:31:38;2.20;;;1.40;;
21905;SDS011;11117;48.644;9.006;2023-08-07T08:34:04;3.73;;;1.40;;
21905;SDS011;11117;48.644;9.006;2023-08-07T08:36:29;5.10;;;1.10;;
21905;SDS011;11117;48.644;9.006;2023-08-07T08:38:55;4.13;;;1.37;;
21905;SDS011;11117;48.644;9.006;2023-08-07T08:41:21;5.82;;;1.30;;
21905;SDS011;11117;48.644;9.006;2023-08-07T08:43:46;2.28;;;1.10;;
21905;SDS011;11117;48.644;9.006;2023-08-07T08:46:16;2.85;;;1.67;;
21905;SDS011;11117;48.644;9.006;2023-08-07T08:48:46;3.72;;;1.10;;
21905;SDS011;11117;48.644;9.006;2023-08-07T08:51:20;2.65;;;1.00;;
21905;SDS011;11117;48.644;9.006;2023-08-07T08:53:45;1.80;;;1.08;;
21905;SDS011;11117;48.644;9.006;2023-08-07T08:56:11;1.92;;;1.00;;
21905;SDS011;11117;48.644;9.006;2023-08-07T08:58:37;1.77;;;0.73;;
21905;SDS011;11117;48.644;9.006;2023-08-07T09:01:03;1.30;;;1.10;;
21905;SDS011;11117;48.644;9.006;2023-08-07T09:03:30;4.72;;;1.10;;
21905;SDS011;11117;48.644;9.006;2023-08-07T09:05:57;2.05;;;1.10;;
21905;SDS011;11117;48.644;9.006;2023-08-07T09:08:24;2.78;;;1.02;;
21905;SDS011;11117;48.644;9.006;2023-08-07T09:10:51;3.17;;;1.00;;
21905;SDS011;11117;48.644;9.006;2023-08-07T09:13:17;4.38;;;1.30;;
21905;SDS011;11117;48.644;9.006;2023-08-07T09:15:47;1.92;;;0.95;;
21905;SDS011;11117;48.644;9.006;2023-08-07T09:18:15;2.17;;;0.88;;
21905;SDS011;11117;48.644;9.006;2023-08-07T09:20:41;2.35;;;0.90;;
21905;SDS011;11117;48.644;9.006;2023-08-07T09:23:07;1.85;;;1.08;;
21905;SDS011;11117;48.644;9.006;2023-08-07T09:25:33;4.72;;;1.08;;
21905;SDS011;11117;48.644;9.006;2023-08-07T09:28:03;2.28;;;1.25;;
21905;SDS011;11117;48.644;9.006;2023-08-07T09:30:30;1.80;;;0.93;;
21905;SDS011;11117;48.644;9.006;2023-08-07T09:32:57;1.77;;;0.80;;
21905;SDS011;11117;48.644;9.006;2023-08-07T09:35:23;1.50;;;0.85;;
21905;SDS011;11117;48.644;9.006;2023-08-07T09:37:49;2.10;;;1.17;;
21905;SDS011;11117;48.644;9.006;2023-08-07T09:40:16;2.17;;;1.10;;
21905;SDS011;11117;48.644;9.006;2023-08-07T09:42:42;1.92;;;0.95;;
21905;SDS011;11117;48.644;9.006;2023-08-07T09:45:29;3.70;;;1.25;;
21905;SDS011;11117;48.644;9.006;2023-08-07T09:47:58;1.67;;;0.75;;
21905;SDS011;11117;48.644;9.006;2023-08-07T09:50:23;2.60;;;1.00;;
21905;SDS011;11117;48.644;9.006;2023-08-07T09:52:49;2.40;;;1.13;;
21905;SDS011;11117;48.644;9.006;2023-08-07T09:55:15;1.88;;;1.05;;
21905;SDS011;11117;48.644;9.006;2023-08-07T09:57:40;2.03;;;1.10;;
21905;SDS011;11117;48.644;9.006;2023-08-07T10:00:08;2.03;;;1.20;;
21905;SDS011;11117;48.644;9.006;2023-08-07T10:02:34;8.75;;;1.30;;
21905;SDS011;11117;48.644;9.006;2023-08-07T10:05:00;2.10;;;1.02;;
21905;SDS011;11117;48.644;9.006;2023-08-07T10:07:26;3.25;;;1.17;;
21905;SDS011;11117;48.644;9.006;2023-08-07T10:09:52;6.15;;;1.10;;
21905;SDS011;11117;48.644;9.006;2023-08-07T10:12:18;3.08;;;0.90;;
21905;SDS011;11117;48.644;9.006;2023-08-07T10:14:45;2.22;;;1.23;;
21905;SDS011;11117;48.644;9.006;2023-08-07T10:17:11;2.50;;;1.20;;
21905;SDS011;11117;48.644;9.006;2023-08-07T10:19:37;3.67;;;1.13;;
21905;SDS011;11117;48.644;9.006;2023-08-07T10:22:02;2.35;;;1.00;;
21905;SDS011;11117;48.644;9.006;2023-08-07T10:24:28;4.75;;;1.05;;
21905;SDS011;11117;48.644;9.006;2023-08-07T10:26:55;1.80;;;1.02;;
21905;SDS011;11117;48.644;9.006;2023-08-07T10:29:22;2.25;;;1.05;;
21905;SDS011;11117;48.644;9.006;2023-08-07T10:31:49;2.13;;;0.98;;
21905;SDS011;11117;48.644;9.006;2023-08-07T10:34:17;2.50;;;1.10;;
21905;SDS011;11117;48.644;9.006;2023-08-07T10:36:43;2.30;;;0.90;;
21905;SDS011;11117;48.644;9.006;2023-08-07T10:39:10;1.25;;;0.95;;
21905;SDS011;11117;48.644;9.006;2023-08-07T10:41:39;3.97;;;1.30;;
21905;SDS011;11117;48.644;9.006;2023-08-07T10:44:19;1.80;;;1.10;;
21905;SDS011;11117;48.644;9.006;2023-08-07T10:46:46;3.78;;;1.08;;
21905;SDS011;11117;48.644;9.006;2023-08-07T10:49:38;1.58;;;1.00;;
21905;SDS011;11117;48.644;9.006;2023-08-07T10:52:08;1.50;;;1.17;;
21905;SDS011;11117;48.644;9.006;2023-08-07T10:54:59;4.78;;;1.27;;
21905;SDS011;11117;48.644;9.006;2023-08-07T10:57:24;1.17;;;0.85;;
21905;SDS011;11117;48.644;9.006;2023-08-07T11:02:25;1.83;;;1.33;;
21905;SDS011;11117;48.644;9.006;2023-08-07T11:04:53;2.63;;;1.33;;
21905;SDS011;11117;48.644;9.006;2023-08-07T11:07:23;2.08;;;1.20;;
21905;SDS011;11117;48.644;9.006;2023-08-07T11:09:49;1.92;;;1.30;;
21905;SDS011;11117;48.644;9.006;2023-08-07T11:12:15;4.38;;;1.33;;
21905;SDS011;11117;48.644;9.006;2023-08-07T11:14:40;4.47;;;1.50;;
21905;SDS011;11117;48.644;9.006;2023-08-07T11:17:06;2.30;;;1.40;;
21905;SDS011;11117;48.644;9.006;2023-08-07T11:19:32;1.90;;;1.30;;
21905;SDS011;11117;48.644;9.006;2023-08-07T11:21:58;1.85;;;1.30;;
21905;SDS011;11117;48.644;9.006;2023-08-07T11:24:24;1.65;;;1.50;;
21905;SDS011;11117;48.644;9.006;2023-08-07T11:26:52;1.55;;;1.20;;
21905;SDS011;11117;48.644;9.006;2023-08-07T11:29:19;2.28;;;1.25;;
21905;SDS011;11117;48.644;9.006;2023-08-07T11:31:45;3.15;;;1.33;;
21905;SDS011;11117;48.644;9.006;2023-08-07T11:34:11;1.75;;;1.50;;
21905;SDS011;11117;48.644;9.006;2023-08-07T11:36:41;2.70;;;1.23;;
21905;SDS011;11117;48.644;9.006;2023-08-07T11:39:06;3.10;;;1.25;;
21905;SDS011;11117;48.644;9.006;2023-08-07T11:41:32;2.30;;;1.52;;
21905;SDS011;11117;48.644;9.006;2023-08-07T11:43:58;3.30;;;1.30;;
21905;SDS011;11117;48.644;9.006;2023-08-07T11:46:23;1.80;;;1.40;;
21905;SDS011;11117;48.644;9.006;2023-08-07T11:48:49;6.63;;;1.23;;
21905;SDS011;11117;48.644;9.006;2023-08-07T11:51:17;2.60;;;1.23;;
21905;SDS011;11117;48.644;9.006;2023-08-07T11:53:45;3.08;;;1.40;;
21905;SDS011;11117;48.644;9.006;2023-08-07T11:56:11;2.92;;;1.38;;
21905;SDS011;11117;48.644;9.006;2023-08-07T11:58:39;2.47;;;1.45;;
21905;SDS011;11117;48.644;9.006;2023-08-07T12:01:06;6.72;;;1.30;;
21905;SDS011;11117;48.644;9.006;2023-08-07T12:03:36;1.35;;;1.20;;
21905;SDS011;11117;48.644;9.006;2023-08-07T12:06:02;4.05;;;1.45;;
21905;SDS011;11117;48.644;9.006;2023-08-07T12:11:09;1.98;;;1.38;;
21905;SDS011;11117;48.644;9.006;2023-08-07T12:13:36;1.75;;;1.42;;
21905;SDS011;11117;48.644;9.006;2023-08-07T12:16:03;3.55;;;1.60;;
21905;SDS011;11117;48.644;9.006;2023-08-07T12:18:29;4.85;;;1.45;;
21905;SDS011;11117;48.644;9.006;2023-08-07T12:20:59;3.45;;;1.40;;
21905;SDS011;11117;48.644;9.006;2023-08-07T12:23:26;1.63;;;1.20;;
21905;SDS011;11117;48.644;9.006;2023-08-07T12:25:52;2.38;;;1.50;;
21905;SDS011;11117;48.644;9.006;2023-08-07T12:28:18;2.55;;;1.52;;
21905;SDS011;11117;48.644;9.006;2023-08-07T12:30:44;3.90;;;1.60;;
21905;SDS011;11117;48.644;9.006;2023-08-07T12:33:11;2.75;;;1.25;;
21905;SDS011;11117;48.644;9.006;2023-08-07T12:35:37;1.73;;;1.20;;
21905;SDS011;11117;48.644;9.006;2023-08-07T12:38:02;2.72;;;1.27;;
21905;SDS011;11117;48.644;9.006;2023-08-07T12:40:28;2.05;;;1.20;;
21905;SDS011;11117;48.644;9.006;2023-08-07T12:43:00;2.70;;;1.50;;
21905;SDS011;11117;48.644;9.006;2023-08-07T12:45:25;3.63;;;1.40;;
21905;SDS011;11117;48.644;9.006;2023-08-07T12:47:51;5.82;;;1.40;;
21905;SDS011;11117;48.644;9.006;2023-08-07T12:50:16;1.75;;;1.27;;
21905;SDS011;11117;48.644;9.006;2023-08-07T12:52:42;3.47;;;1.50;;
21905;SDS011;11117;48.644;9.006;2023-08-07T12:55:08;3.83;;;1.38;;
21905;SDS011;11117;48.644;9.006;2023-08-07T12:57:33;2.95;;;1.30;;
21905;SDS011;11117;48.644;9.006;2023-08-07T12:59:59;2.00;;;1.48;;
21905;SDS011;11117;48.644;9.006;2023-08-07T13:02:24;2.67;;;1.48;;
21905;SDS011;11117;48.644;9.006;2023-08-07T13:04:50;3.03;;;1.42;;
21905;SDS011;11117;48.644;9.006;2023-08-07T13:07:16;2.42;;;1.55;;
21905;SDS011;11117;48.644;9.006;2023-08-07T13:09:42;2.45;;;1.60;;
21905;SDS011;11117;48.644;9.006;2023-08-07T13:12:08;4.18;;;1.48;;
21905;SDS011;11117;48.644;9.006;2023-08-07T13:14:34;2.28;;;1.52;;
21905;SDS011;11117;48.644;9.006;2023-08-07T13:16:59;3.50;;;1.40;;
21905;SDS011;11117;48.644;9.006;2023-08-07T13:19:25;1.80;;;1.02;;
21905;SDS011;11117;48.644;9.006;2023-08-07T13:21:50;2.90;;;1.50;;
21905;SDS011;11117;48.644;9.006;2023-08-07T13:24:18;1.98;;;1.13;;
21905;SDS011;11117;48.644;9.006;2023-08-07T13:26:43;1.95;;;1.30;;
21905;SDS011;11117;48.644;9.006;2023-08-07T13:29:09;1.42;;;1.23;;
21905;SDS011;11117;48.644;9.006;2023-08-07T13:31:34;2.35;;;1.60;;
21905;SDS011;11117;48.644;9.006;2023-08-07T13:34:00;1.75;;;1.30;;
21905;SDS011;11117;48.644;9.006;2023-08-07T13:36:25;2.67;;;1.67;;
21905;SDS011;11117;48.644;9.006;2023-08-07T13:38:51;2.08;;;1.52;;
21905;SDS011;11117;48.644;9.006;2023-08-07T13:41:16;6.55;;;1.50;;
21905;SDS011;11117;48.644;9.006;2023-08-07T13:43:42;3.85;;;1.48;;
21905;SDS011;11117;48.644;9.006;2023-08-07T13:46:07;4.07;;;2.03;;
21905;SDS011;11117;48.644;9.006;2023-08-07T13:48:33;2.00;;;1.50;;
21905;SDS011;11117;48.644;9.006;2023-08-07T13:50:58;2.67;;;1.42;;
21905;SDS011;11117;48.644;9.006;2023-08-07T13:53:24;1.83;;;1.50;;
21905;SDS011;11117;48.644;9.006;2023-08-07T13:55:50;2.05;;;1.52;;
21905;SDS011;11117;48.644;9.006;2023-08-07T13:58:15;2.80;;;1.45;;
21905;SDS011;11117;48.644;9.006;2023-08-07T14:00:41;4.22;;;1.45;;
21905;SDS011;11117;48.644;9.006;2023-08-07T14:03:06;5.07;;;1.70;;
21905;SDS011;11117;48.644;9.006;2023-08-07T14:05:33;5.57;;;1.70;;
21905;SDS011;11117;48.644;9.006;2023-08-07T14:07:59;2.55;;;1.85;;
21905;SDS011;11117;48.644;9.006;2023-08-07T14:10:24;2.97;;;1.75;;
21905;SDS011;11117;48.644;9.006;2023-08-07T14:12:50;3.80;;;1.77;;
21905;SDS011;11117;48.644;9.006;2023-08-07T14:15:15;4.32;;;1.52;;
21905;SDS011;11117;48.644;9.006;2023-08-07T14:17:41;2.17;;;1.52;;
21905;SDS011;11117;48.644;9.006;2023-08-07T14:20:07;2.10;;;1.50;;
21905;SDS011;11117;48.644;9.006;2023-08-07T14:22:33;2.60;;;1.60;;
21905;SDS011;11117;48.644;9.006;2023-08-07T14:24:58;1.88;;;1.40;;
21905;SDS011;11117;48.644;9.006;2023-08-07T14:27:24;3.13;;;1.70;;
21905;SDS011;11117;48.644;9.006;2023-08-07T14:29:49;4.57;;;1.50;;
21905;SDS011;11117;48.644;9.006;2023-08-07T14:32:15;2.83;;;1.73;;
21905;SDS011;11117;48.644;9.006;2023-08-07T14:34:41;3.90;;;1.40;;
21905;SDS011;11117;48.644;9.006;2023-08-07T14:37:06;3.88;;;1.40;;
21905;SDS011;11117;48.644;9.006;2023-08-07T14:39:32;2.58;;;1.63;;
21905;SDS011;11117;48.644;9.006;2023-08-07T14:41:58;4.43;;;1.50;;
21905;SDS011;11117;48.644;9.006;2023-08-07T14:44:23;3.80;;;1.65;;
21905;SDS011;11117;48.644;9.006;2023-08-07T14:46:49;2.20;;;1.45;;
21905;SDS011;11117;48.644;9.006;2023-08-07T14:49:18;1.63;;;1.50;;